createdAt,value
2022-11-08T00:00:01.489Z,6.40
2022-11-08T00:02:28.669Z,6.40
2022-11-08T00:04:55.836Z,6.30
2022-11-08T00:07:41.133Z,6.30
2022-11-08T00:10:27.104Z,6.30
2022-11-08T00:13:12.810Z,6.30
2022-11-08T00:15:39.791Z,6.30
2022-11-08T00:18:07.932Z,6.30
2022-11-08T00:20:35.421Z,6.30
2022-11-08T00:23:03.964Z,6.20
2022-11-08T00:25:31.113Z,6.20
2022-11-08T00:27:58.104Z,6.20
2022-11-08T00:30:25.096Z,6.10
2022-11-08T00:32:52.110Z,6.10
2022-11-08T00:35:19.143Z,6.10
2022-11-08T00:37:46.130Z,6.00
2022-11-08T00:40:13.281Z,6.00
2022-11-08T00:42:40.635Z,6.00
2022-11-08T00:45:08.081Z,6.00
2022-11-08T00:47:35.057Z,6.00
2022-11-08T00:50:02.051Z,6.00
2022-11-08T00:52:29.029Z,5.90
2022-11-08T00:54:55.994Z,6.00
2022-11-08T00:57:40.864Z,5.90
2022-11-08T01:00:10.597Z,5.90
2022-11-08T01:02:37.688Z,5.90
2022-11-08T01:05:05.066Z,5.80
2022-11-08T01:07:32.068Z,5.80
2022-11-08T01:09:59.087Z,5.90
2022-11-08T01:12:26.088Z,5.90
2022-11-08T01:14:54.376Z,5.90
2022-11-08T01:17:22.107Z,5.90
2022-11-08T01:19:50.673Z,5.80
2022-11-08T01:22:18.292Z,5.80
2022-11-08T01:24:46.910Z,5.80
2022-11-08T01:27:21.309Z,5.80
2022-11-08T01:30:22.038Z,5.70
2022-11-08T01:33:14.701Z,5.70
2022-11-08T01:36:19.712Z,5.60
2022-11-08T01:39:18.567Z,5.70
2022-11-08T01:42:41.591Z,5.70
2022-11-08T01:45:57.259Z,5.70
2022-11-08T01:52:03.603Z,5.60
2022-11-08T01:58:25.944Z,5.60
2022-11-08T02:01:06.129Z,5.60
2022-11-08T02:12:28.187Z,5.50
2022-11-08T02:14:56.179Z,5.50
2022-11-08T02:17:23.959Z,5.50
2022-11-08T02:19:52.441Z,5.50
2022-11-08T02:22:38.866Z,5.50
2022-11-08T02:25:06.967Z,5.50
2022-11-08T02:27:33.923Z,5.40
2022-11-08T02:30:00.994Z,5.40
2022-11-08T02:32:41.099Z,5.30
2022-11-08T02:35:19.732Z,5.20
2022-11-08T02:37:48.049Z,5.20
2022-11-08T02:40:15.075Z,5.20
2022-11-08T02:42:42.198Z,5.20
2022-11-08T02:45:09.733Z,5.20
2022-11-08T02:47:36.713Z,5.20
2022-11-08T02:50:04.109Z,5.10
2022-11-08T02:52:31.116Z,5.10
2022-11-08T02:54:58.106Z,5.20
2022-11-08T02:57:25.113Z,5.10
2022-11-08T02:59:52.148Z,5.10
2022-11-08T03:02:19.181Z,5.10
2022-11-08T03:04:50.423Z,5.10
2022-11-08T03:07:22.141Z,5.10
2022-11-08T03:09:51.599Z,5.10
2022-11-08T03:12:20.279Z,5.10
2022-11-08T03:14:47.278Z,5.10
2022-11-08T03:17:14.528Z,5.10
2022-11-08T03:19:41.540Z,5.10
2022-11-08T03:22:08.607Z,5.00
2022-11-08T03:24:35.612Z,5.00
2022-11-08T03:27:03.021Z,5.00
2022-11-08T03:29:30.004Z,4.90
2022-11-08T03:31:57.011Z,4.90
2022-11-08T03:34:23.973Z,4.90
2022-11-08T03:36:51.050Z,4.90
2022-11-08T03:39:18.121Z,5.00
2022-11-08T03:41:45.068Z,4.90
2022-11-08T03:44:12.012Z,4.90
2022-11-08T03:46:39.022Z,4.90
2022-11-08T03:49:05.996Z,4.80
2022-11-08T03:51:33.040Z,4.90
2022-11-08T03:54:00.076Z,4.80
2022-11-08T03:56:27.379Z,4.80
2022-11-08T03:58:54.381Z,4.80
2022-11-08T04:01:21.444Z,4.80
2022-11-08T04:03:48.436Z,4.80
2022-11-08T04:06:15.474Z,4.80
2022-11-08T04:08:42.491Z,4.80
2022-11-08T04:11:32.468Z,4.80
2022-11-08T04:14:25.786Z,4.70
2022-11-08T04:16:52.781Z,4.70
2022-11-08T04:19:38.223Z,4.70
2022-11-08T04:22:06.457Z,4.70
2022-11-08T04:24:33.560Z,4.70
2022-11-08T04:27:01.688Z,4.70
2022-11-08T04:29:29.162Z,4.70
2022-11-08T04:31:56.171Z,4.70
2022-11-08T04:34:23.311Z,4.70
2022-11-08T04:36:50.523Z,4.70
2022-11-08T04:39:17.646Z,4.60
2022-11-08T04:41:44.681Z,4.60
2022-11-08T04:44:11.955Z,4.60
2022-11-08T04:46:38.924Z,4.70
2022-11-08T04:49:05.943Z,4.70
2022-11-08T04:51:33.825Z,4.60
2022-11-08T04:54:02.737Z,4.60
2022-11-08T04:56:30.960Z,4.60
2022-11-08T04:58:59.829Z,4.60
2022-11-08T05:01:30.062Z,4.60
2022-11-08T05:03:58.449Z,4.60
2022-11-08T05:06:27.781Z,4.60
2022-11-08T05:08:56.520Z,4.60
2022-11-08T05:11:25.795Z,4.60
2022-11-08T05:13:53.160Z,4.60
2022-11-08T05:16:23.333Z,4.50
2022-11-08T05:18:51.662Z,4.50
2022-11-08T05:21:40.902Z,4.50
2022-11-08T05:24:11.435Z,4.60
2022-11-08T05:26:40.515Z,4.60
2022-11-08T05:29:07.507Z,4.50
2022-11-08T05:31:35.035Z,4.50
2022-11-08T05:34:02.253Z,4.50
2022-11-08T05:36:29.884Z,4.60
2022-11-08T05:38:57.236Z,4.50
2022-11-08T05:41:25.431Z,4.50
2022-11-08T05:43:54.328Z,4.50
2022-11-08T05:46:22.814Z,4.50
2022-11-08T05:48:50.323Z,4.50
2022-11-08T05:51:19.077Z,4.60
2022-11-08T05:53:47.352Z,4.60
2022-11-08T05:56:14.725Z,4.60
2022-11-08T05:58:47.848Z,4.70
2022-11-08T06:01:17.660Z,4.80
2022-11-08T06:03:45.553Z,4.80
2022-11-08T06:06:18.305Z,4.80
2022-11-08T06:08:50.025Z,4.90
2022-11-08T06:11:23.473Z,4.90
2022-11-08T06:13:50.993Z,4.90
2022-11-08T06:16:19.512Z,4.90
2022-11-08T06:18:47.299Z,4.90
2022-11-08T06:21:16.710Z,5.00
2022-11-08T06:23:43.865Z,5.00
2022-11-08T06:26:11.257Z,5.10
2022-11-08T06:28:38.579Z,5.20
2022-11-08T06:31:05.845Z,5.20
2022-11-08T06:33:33.462Z,5.20
2022-11-08T06:36:00.839Z,5.30
2022-11-08T06:38:27.890Z,5.40
2022-11-08T06:40:55.034Z,5.50
2022-11-08T06:43:22.407Z,5.70
2022-11-08T06:45:49.823Z,5.70
2022-11-08T06:48:16.873Z,5.90
2022-11-08T06:50:44.367Z,5.90
2022-11-08T06:53:13.545Z,6.00
2022-11-08T06:55:41.290Z,6.10
2022-11-08T06:58:08.307Z,6.20
2022-11-08T07:00:35.390Z,6.20
2022-11-08T07:03:04.036Z,6.30
2022-11-08T07:05:33.057Z,6.50
2022-11-08T07:08:00.979Z,6.50
2022-11-08T07:10:30.812Z,6.70
2022-11-08T07:13:10.078Z,6.70
2022-11-08T07:15:37.798Z,6.70
2022-11-08T07:18:07.507Z,6.80
2022-11-08T07:20:35.280Z,6.80
2022-11-08T07:23:02.609Z,6.90
2022-11-08T07:25:30.720Z,6.90
2022-11-08T07:28:00.040Z,7.00
2022-11-08T07:30:28.353Z,7.00
2022-11-08T07:32:56.388Z,7.20
2022-11-08T07:35:23.898Z,7.20
2022-11-08T07:37:51.209Z,7.20
2022-11-08T07:40:18.365Z,7.30
2022-11-08T07:43:10.035Z,7.40
2022-11-08T07:45:33.032Z,7.50
2022-11-08T07:48:04.302Z,7.40
2022-11-08T07:50:34.086Z,7.50
2022-11-08T07:53:01.049Z,7.70
2022-11-08T07:55:28.219Z,7.90
2022-11-08T07:58:02.563Z,8.00
2022-11-08T08:00:36.594Z,8.10
2022-11-08T08:03:05.509Z,8.30
2022-11-08T08:05:36.311Z,8.50
2022-11-08T08:08:04.018Z,8.60
2022-11-08T08:10:31.785Z,8.70
2022-11-08T08:12:58.792Z,8.80
2022-11-08T08:15:26.174Z,8.90
2022-11-08T08:17:53.283Z,9.10
2022-11-08T08:20:20.264Z,9.20
2022-11-08T08:22:49.058Z,9.20
2022-11-08T08:25:17.083Z,9.30
2022-11-08T08:27:52.072Z,9.40
2022-11-08T08:30:19.974Z,9.40
2022-11-08T08:32:57.688Z,9.50
2022-11-08T08:35:36.471Z,9.40
2022-11-08T08:38:04.713Z,9.50
2022-11-08T08:40:32.553Z,9.60
2022-11-08T08:43:01.209Z,9.80
2022-11-08T08:45:29.134Z,9.70
2022-11-08T08:47:57.643Z,9.70
2022-11-08T08:50:26.124Z,9.90
2022-11-08T08:52:57.259Z,9.80
2022-11-08T08:55:24.273Z,10.00
2022-11-08T08:57:51.265Z,10.20
2022-11-08T09:03:07.799Z,10.50
2022-11-08T09:05:35.548Z,10.50
2022-11-08T09:08:02.532Z,10.50
2022-11-08T09:10:29.954Z,10.40
2022-11-08T09:12:56.959Z,10.40
2022-11-08T09:15:24.016Z,10.70
2022-11-08T09:17:54.540Z,10.70
2022-11-08T09:20:22.065Z,10.80
2022-11-08T09:22:49.343Z,10.90
2022-11-08T09:25:16.343Z,11.00
2022-11-08T09:27:43.330Z,11.00
2022-11-08T09:30:10.760Z,11.10
2022-11-08T09:35:25.657Z,11.30
2022-11-08T09:37:55.907Z,11.30
2022-11-08T09:40:31.763Z,11.30
2022-11-08T09:43:26.240Z,11.40
2022-11-08T09:45:56.144Z,11.50
2022-11-08T09:48:26.840Z,11.50
2022-11-08T09:50:55.252Z,11.50
2022-11-08T09:53:52.661Z,11.70
2022-11-08T09:56:27.884Z,11.80
2022-11-08T09:59:08.694Z,12.00
2022-11-08T10:01:37.379Z,11.90
2022-11-08T10:04:15.218Z,11.90
2022-11-08T10:07:08.344Z,11.90
2022-11-08T10:09:47.344Z,12.00
2022-11-08T10:12:35.145Z,12.10
2022-11-08T10:15:07.668Z,12.10
2022-11-08T10:18:03.961Z,12.20
2022-11-08T10:20:52.885Z,12.30
2022-11-08T10:23:21.715Z,12.40
2022-11-08T10:26:27.262Z,12.50
2022-11-08T10:29:07.704Z,12.70
2022-11-08T10:31:38.390Z,12.70
2022-11-08T10:34:15.103Z,12.70
2022-11-08T10:36:46.110Z,12.80
2022-11-08T10:39:26.226Z,13.00
2022-11-08T10:42:16.567Z,13.00
2022-11-08T10:44:44.255Z,13.10
2022-11-08T10:47:23.565Z,13.10
2022-11-08T10:49:50.783Z,13.10
2022-11-08T10:52:21.024Z,13.20
2022-11-08T10:54:59.112Z,13.30
2022-11-08T10:57:31.973Z,13.40
2022-11-08T11:00:17.228Z,13.60
2022-11-08T11:02:46.638Z,13.60
2022-11-08T11:05:16.685Z,13.60
2022-11-08T11:07:57.643Z,13.70
2022-11-08T11:10:30.853Z,13.70
2022-11-08T11:13:12.146Z,13.80
2022-11-08T11:15:58.686Z,13.70
2022-11-08T11:18:37.909Z,13.80
2022-11-08T11:21:04.926Z,14.00
2022-11-08T11:23:39.921Z,14.00
2022-11-08T11:26:16.787Z,14.10
2022-11-08T11:29:08.468Z,14.30
2022-11-08T11:31:36.752Z,14.30
2022-11-08T11:34:24.687Z,14.30
2022-11-08T11:37:10.803Z,14.50
2022-11-08T11:39:49.656Z,14.40
2022-11-08T11:45:28.207Z,14.50
2022-11-08T11:48:02.679Z,14.50
2022-11-08T11:50:34.514Z,14.50
2022-11-08T11:53:05.850Z,14.60
2022-11-08T11:56:05.041Z,14.60
2022-11-08T11:58:38.067Z,14.50
2022-11-08T12:01:26.208Z,14.60
2022-11-08T12:04:21.834Z,14.70
2022-11-08T12:07:07.472Z,14.70
2022-11-08T12:09:55.669Z,14.70
2022-11-08T12:13:00.008Z,14.70
2022-11-08T12:16:07.510Z,14.80
2022-11-08T12:18:53.634Z,14.90
2022-11-08T12:21:23.659Z,14.90
2022-11-08T12:24:28.020Z,14.80
2022-11-08T12:26:55.557Z,14.70
2022-11-08T12:29:43.935Z,14.70
2022-11-08T12:32:10.948Z,14.60
2022-11-08T12:35:21.096Z,14.60
2022-11-08T12:38:05.890Z,14.60
2022-11-08T12:40:57.800Z,14.60
2022-11-08T12:43:45.462Z,14.70
2022-11-08T12:46:18.675Z,14.70
2022-11-08T12:49:00.753Z,14.60
2022-11-08T12:51:27.726Z,14.70
2022-11-08T12:54:14.836Z,14.70
2022-11-08T12:56:45.482Z,14.70
2022-11-08T12:59:28.186Z,14.70
2022-11-08T13:01:56.793Z,14.80
2022-11-08T13:04:26.640Z,14.90
2022-11-08T13:07:07.211Z,14.80
2022-11-08T13:10:09.828Z,14.80
2022-11-08T13:12:45.138Z,14.80
2022-11-08T13:15:22.843Z,14.90
2022-11-08T13:18:19.538Z,14.90
2022-11-08T13:20:48.623Z,14.80
2022-11-08T13:23:41.886Z,14.70
2022-11-08T13:26:12.640Z,14.70
2022-11-08T13:28:45.155Z,14.70
2022-11-08T13:31:23.551Z,14.70
2022-11-08T13:34:18.015Z,14.70
2022-11-08T13:36:54.423Z,14.80
2022-11-08T13:39:56.497Z,14.70
2022-11-08T13:42:23.417Z,14.80
2022-11-08T13:44:56.482Z,14.80
2022-11-08T13:47:32.539Z,14.70
2022-11-08T13:50:34.050Z,14.70
2022-11-08T13:53:19.098Z,14.80
2022-11-08T13:56:04.902Z,14.80
2022-11-08T13:58:39.167Z,14.80
2022-11-08T14:01:38.404Z,14.80
2022-11-08T14:04:34.954Z,14.80
2022-11-08T14:07:12.015Z,14.90
2022-11-08T14:09:41.857Z,15.00
2022-11-08T14:12:42.257Z,14.90
2022-11-08T14:15:50.761Z,14.90
2022-11-08T14:18:35.117Z,14.80
2022-11-08T14:21:05.377Z,14.80
2022-11-08T14:23:41.476Z,14.80
2022-11-08T14:26:20.440Z,14.70
2022-11-08T14:28:49.317Z,14.60
2022-11-08T14:31:30.610Z,14.60
2022-11-08T14:33:59.574Z,14.50
2022-11-08T14:36:28.633Z,14.50
2022-11-08T14:39:16.365Z,14.40
2022-11-08T14:41:48.470Z,14.30
2022-11-08T14:44:19.027Z,14.20
2022-11-08T14:46:47.855Z,14.00
2022-11-08T14:49:15.764Z,13.90
2022-11-08T14:51:43.798Z,13.80
2022-11-08T14:54:27.251Z,13.70
2022-11-08T14:56:56.061Z,13.60
2022-11-08T14:59:24.932Z,13.50
2022-11-08T15:01:52.266Z,13.40
2022-11-08T15:04:22.338Z,13.30
2022-11-08T15:06:53.208Z,13.20
2022-11-08T15:09:35.311Z,13.10
2022-11-08T15:12:05.692Z,13.00
2022-11-08T15:14:36.107Z,13.00
2022-11-08T15:17:03.807Z,12.90
2022-11-08T15:19:46.455Z,12.80
2022-11-08T15:22:30.439Z,12.70
2022-11-08T15:25:33.019Z,12.70
2022-11-08T15:28:15.769Z,12.50
2022-11-08T15:30:43.482Z,12.40
2022-11-08T15:33:32.488Z,12.30
2022-11-08T15:36:00.105Z,12.20
2022-11-08T15:38:42.726Z,12.20
2022-11-08T15:41:36.927Z,12.20
2022-11-08T15:44:24.166Z,12.10
2022-11-08T15:46:53.253Z,12.00
2022-11-08T15:49:26.227Z,12.00
2022-11-08T15:51:54.224Z,11.90
2022-11-08T15:54:23.178Z,11.70
2022-11-08T15:56:52.634Z,11.70
2022-11-08T15:59:30.468Z,11.60
2022-11-08T16:01:59.877Z,11.60
2022-11-08T16:04:28.977Z,11.50
2022-11-08T16:06:57.037Z,11.60
2022-11-08T16:09:24.224Z,11.60
2022-11-08T16:11:51.601Z,11.50
2022-11-08T16:14:22.870Z,11.50
2022-11-08T16:16:50.313Z,11.40
2022-11-08T16:19:20.029Z,11.30
2022-11-08T16:21:47.519Z,11.20
2022-11-08T16:24:14.640Z,11.10
2022-11-08T16:26:43.095Z,11.00
2022-11-08T16:29:31.545Z,11.00
2022-11-08T16:31:58.544Z,10.90
2022-11-08T16:34:25.552Z,10.80
2022-11-08T16:36:54.757Z,10.80
2022-11-08T16:39:26.923Z,10.70
2022-11-08T16:41:54.168Z,10.60
2022-11-08T16:44:21.223Z,10.60
2022-11-08T16:46:48.262Z,10.60
2022-11-08T16:49:24.290Z,10.60
2022-11-08T16:51:51.270Z,10.60
2022-11-08T16:54:20.715Z,10.60
2022-11-08T16:56:47.837Z,10.60
2022-11-08T16:59:15.731Z,10.50
2022-11-08T17:01:44.137Z,10.50
2022-11-08T17:04:11.360Z,10.40
2022-11-08T17:06:38.408Z,10.40
2022-11-08T17:09:05.824Z,10.50
2022-11-08T17:11:32.995Z,10.50
2022-11-08T17:13:59.986Z,10.50
2022-11-08T17:16:27.449Z,10.50
2022-11-08T17:18:54.537Z,10.40
2022-11-08T17:21:43.662Z,10.30
2022-11-08T17:24:09.669Z,10.30
2022-11-08T17:26:36.672Z,10.20
2022-11-08T17:29:03.790Z,10.10
2022-11-08T17:31:30.812Z,10.10
2022-11-08T17:33:57.784Z,10.00
2022-11-08T17:39:08.880Z,10.00
2022-11-08T17:41:36.103Z,9.90
2022-11-08T17:44:03.116Z,9.90
2022-11-08T17:46:30.154Z,9.90
2022-11-08T17:48:57.172Z,9.80
2022-11-08T17:51:24.408Z,9.80
2022-11-08T17:53:51.740Z,9.70
2022-11-08T17:56:19.524Z,9.70
2022-11-08T17:58:46.605Z,9.70
2022-11-08T18:01:14.349Z,9.70
2022-11-08T18:03:41.774Z,9.60
2022-11-08T18:06:12.114Z,9.60
2022-11-08T18:08:39.736Z,9.50
2022-11-08T18:11:07.158Z,9.50
2022-11-08T18:13:37.806Z,9.50
2022-11-08T18:16:12.401Z,9.50
2022-11-08T18:18:40.031Z,9.40
2022-11-08T18:21:07.945Z,9.30
2022-11-08T18:23:35.254Z,9.30
2022-11-08T18:26:02.670Z,9.30
2022-11-08T18:28:29.719Z,9.30
2022-11-08T18:31:02.958Z,9.20
2022-11-08T18:33:29.955Z,9.20
2022-11-08T18:35:56.940Z,9.20
2022-11-08T18:38:23.946Z,9.10
2022-11-08T18:40:50.937Z,9.10
2022-11-08T18:43:18.296Z,9.00
2022-11-08T18:45:45.714Z,9.00
2022-11-08T18:48:12.792Z,9.00
2022-11-08T18:50:39.781Z,9.00
2022-11-08T18:53:08.830Z,9.00
2022-11-08T18:55:36.257Z,8.90
2022-11-08T18:58:03.903Z,8.90
2022-11-08T19:00:30.981Z,8.90
2022-11-08T19:02:58.018Z,8.80
2022-11-08T19:05:25.101Z,8.80
2022-11-08T19:07:52.311Z,8.80
2022-11-08T19:10:19.812Z,8.90
2022-11-08T19:12:46.784Z,8.90
2022-11-08T19:15:14.680Z,8.80
2022-11-08T19:17:42.822Z,8.80
2022-11-08T19:20:10.375Z,8.80
2022-11-08T19:22:37.406Z,8.70
2022-11-08T19:25:04.728Z,8.70
2022-11-08T19:27:31.918Z,8.70
2022-11-08T19:30:00.650Z,8.60
2022-11-08T19:32:27.669Z,8.60
2022-11-08T19:34:54.681Z,8.60
2022-11-08T19:37:21.693Z,8.60
2022-11-08T19:39:49.084Z,8.60
2022-11-08T19:42:16.092Z,8.60
2022-11-08T19:44:43.144Z,8.60
2022-11-08T19:47:10.159Z,8.60
2022-11-08T19:49:41.009Z,8.50
2022-11-08T19:52:08.252Z,8.50
2022-11-08T19:54:35.559Z,8.50
2022-11-08T19:57:04.586Z,8.50
2022-11-08T19:59:32.427Z,8.50
2022-11-08T20:02:00.126Z,8.40
2022-11-08T20:04:27.424Z,8.40
2022-11-08T20:06:54.564Z,8.40
2022-11-08T20:09:25.952Z,8.40
2022-11-08T20:11:56.210Z,8.40
2022-11-08T20:14:23.700Z,8.30
2022-11-08T20:16:53.524Z,8.30
2022-11-08T20:19:21.220Z,8.40
2022-11-08T20:21:48.490Z,8.30
2022-11-08T20:24:16.651Z,8.30
2022-11-08T20:26:44.372Z,8.30
2022-11-08T20:29:11.977Z,8.30
2022-11-08T20:31:39.481Z,8.20
2022-11-08T20:34:11.879Z,8.20
2022-11-08T20:36:41.085Z,8.10
2022-11-08T20:39:08.367Z,8.10
2022-11-08T20:41:37.904Z,8.10
2022-11-08T20:44:06.477Z,8.10
2022-11-08T20:46:34.678Z,8.10
2022-11-08T20:49:02.586Z,8.00
2022-11-08T20:51:30.857Z,8.00
2022-11-08T20:54:00.591Z,8.00
2022-11-08T20:56:28.261Z,7.90
2022-11-08T20:59:02.832Z,7.90
2022-11-08T21:01:32.877Z,7.90
2022-11-08T21:04:01.255Z,7.90
2022-11-08T21:06:32.963Z,7.90
2022-11-08T21:09:14.381Z,7.90
2022-11-08T21:11:49.645Z,7.80
2022-11-08T21:14:16.841Z,7.80
2022-11-08T21:17:14.565Z,7.80
2022-11-08T21:19:30.950Z,7.70
2022-11-08T21:22:15.223Z,7.70
2022-11-08T21:24:43.636Z,7.70
2022-11-08T21:27:11.255Z,7.70
2022-11-08T21:29:38.961Z,7.70
2022-11-08T21:32:06.440Z,7.70
2022-11-08T21:34:33.554Z,7.60
2022-11-08T21:37:00.816Z,7.60
2022-11-08T21:39:27.921Z,7.60
2022-11-08T21:41:54.918Z,7.60
2022-11-08T21:44:22.054Z,7.60
2022-11-08T21:46:49.356Z,7.60
2022-11-08T21:49:16.383Z,7.50
2022-11-08T21:51:43.445Z,7.60
2022-11-08T21:54:10.546Z,7.50
2022-11-08T21:56:38.966Z,7.50
2022-11-08T21:59:06.225Z,7.40
2022-11-08T22:01:33.746Z,7.40
2022-11-08T22:04:00.844Z,7.40
2022-11-08T22:06:29.681Z,7.40
2022-11-08T22:08:56.863Z,7.40
2022-11-08T22:11:24.155Z,7.40
2022-11-08T22:13:51.277Z,7.40
2022-11-08T22:16:18.465Z,7.40
2022-11-08T22:21:39.507Z,7.40
2022-11-08T22:24:17.307Z,7.40
2022-11-08T22:26:44.781Z,7.40
2022-11-08T22:29:11.877Z,7.30
2022-11-08T22:31:39.241Z,7.30
2022-11-08T22:34:08.670Z,7.30
2022-11-08T22:36:41.469Z,7.20
2022-11-08T22:39:12.874Z,7.20
2022-11-08T22:41:39.930Z,7.20
2022-11-08T22:44:11.662Z,7.30
2022-11-08T22:46:39.893Z,7.20
2022-11-08T22:49:07.059Z,7.10
2022-11-08T22:51:34.071Z,7.20
2022-11-08T22:54:04.171Z,7.10
2022-11-08T22:56:37.901Z,7.10
2022-11-08T22:59:05.283Z,7.10
2022-11-08T23:01:32.601Z,7.00
2022-11-08T23:04:03.316Z,7.00
2022-11-08T23:06:30.818Z,7.00
2022-11-08T23:08:57.978Z,7.00
2022-11-08T23:11:43.807Z,7.00
2022-11-08T23:14:37.375Z,7.10
2022-11-08T23:17:07.613Z,7.00
2022-11-08T23:19:53.453Z,7.10
2022-11-08T23:22:39.782Z,7.10
2022-11-08T23:25:07.269Z,7.00
2022-11-08T23:27:52.895Z,7.00
2022-11-08T23:30:38.614Z,7.00
2022-11-08T23:33:09.521Z,7.00
2022-11-08T23:35:36.620Z,6.90
2022-11-08T23:38:03.767Z,6.90
2022-11-08T23:40:49.127Z,7.00
2022-11-08T23:43:37.221Z,7.20
2022-11-08T23:46:10.149Z,7.10
2022-11-08T23:48:38.552Z,7.30
2022-11-08T23:51:06.146Z,7.30
2022-11-08T23:53:37.123Z,7.30
2022-11-08T23:56:05.042Z,7.30
2022-11-08T23:58:32.644Z,7.20
